San Diego, California
Current Conditions -  °F | °C
As of 8:51 AM on Sunday 23 Nov 2014 (Local Time) from KSAN Reporting Station
Broken Clouds Broken Clouds  
Wind Chill: 17°   Ceiling: 25000
Heat Index: 17°   Visibility: 10mi
Dew Point: 11°   Wind: 0mph
Humidity: 65%   Direction: NA
Pressure: 30.12"   Gusts: NA
Location:  32.72°N, 117.16°W
Report Text: KSAN 231651Z 00000KT 10SM BKN250 17/11 A3012 RMK AO2 SLP200 T01720106
Loading
Personal Weather Stations






























Interactive Weather Map New forecast layout! Learn more

10-Day Weather Forecast

Advertisements
Track Severe Weather on mobile